createdAt,value
2018-01-12T00:00:07.122Z,56.90
2018-01-12T00:02:35.441Z,51.27
2018-01-12T00:05:03.769Z,55.17
2018-01-12T00:07:32.079Z,57.10
2018-01-12T00:10:00.438Z,51.90
2018-01-12T00:12:28.774Z,60.20
2018-01-12T00:14:57.106Z,59.87
2018-01-12T00:17:25.528Z,48.07
2018-01-12T00:19:53.881Z,61.47
2018-01-12T00:22:22.285Z,48.13
2018-01-12T00:24:50.630Z,40.73
2018-01-12T00:27:18.970Z,56.10
2018-01-12T00:29:47.296Z,54.17
2018-01-12T00:32:15.620Z,52.57
2018-01-12T00:34:43.959Z,50.00
2018-01-12T00:37:12.284Z,51.87
2018-01-12T00:39:40.833Z,52.07
2018-01-12T00:42:09.187Z,46.93
2018-01-12T00:44:37.523Z,43.83
2018-01-12T00:47:05.865Z,25.23
2018-01-12T00:49:34.179Z,42.50
2018-01-12T00:52:02.544Z,40.57
2018-01-12T00:54:30.892Z,56.13
2018-01-12T00:56:59.225Z,42.53
2018-01-12T00:59:27.587Z,49.93
2018-01-12T01:01:55.931Z,45.10
2018-01-12T01:04:24.256Z,30.13
2018-01-12T01:06:52.687Z,45.43
2018-01-12T01:09:21.024Z,47.30
2018-01-12T01:11:49.365Z,44.23
2018-01-12T01:14:17.715Z,48.90
2018-01-12T01:16:46.054Z,42.03
2018-01-12T01:19:14.375Z,43.33
2018-01-12T01:21:42.704Z,36.77
2018-01-12T01:24:11.058Z,53.47
2018-01-12T01:26:39.428Z,48.30
2018-01-12T01:29:08.273Z,49.33
2018-01-12T01:31:37.304Z,45.27
2018-01-12T01:34:05.952Z,41.10
2018-01-12T01:36:34.886Z,44.30
2018-01-12T01:39:03.241Z,36.50
2018-01-12T01:41:31.598Z,49.13
2018-01-12T01:43:59.916Z,46.50
2018-01-12T01:46:28.289Z,47.63
2018-01-12T01:48:56.606Z,44.90
2018-01-12T01:51:24.961Z,41.40
2018-01-12T01:53:53.268Z,66.97
2018-01-12T01:56:21.614Z,52.93
2018-01-12T01:58:49.953Z,67.63
2018-01-12T02:01:18.275Z,56.53
2018-01-12T02:03:46.607Z,50.13
2018-01-12T02:06:14.923Z,53.47
2018-01-12T02:08:43.263Z,43.50
2018-01-12T02:11:11.667Z,54.30
2018-01-12T02:13:39.979Z,41.40
2018-01-12T02:16:08.381Z,64.87
2018-01-12T02:18:36.752Z,51.33
2018-01-12T02:21:05.084Z,56.47
2018-01-12T02:23:33.408Z,67.50
2018-01-12T02:26:01.736Z,55.40
2018-01-12T02:28:30.064Z,59.83
2018-01-12T02:30:58.394Z,48.20
2018-01-12T02:33:26.781Z,57.83
2018-01-12T02:35:55.142Z,68.10
2018-01-12T02:38:23.461Z,54.33
2018-01-12T02:40:51.799Z,53.13
2018-01-12T02:43:20.124Z,57.33
2018-01-12T02:45:49.292Z,68.30
2018-01-12T02:48:17.616Z,43.70
2018-01-12T02:50:45.943Z,65.13
2018-01-12T02:53:14.295Z,59.50
2018-01-12T02:55:42.638Z,64.73
2018-01-12T02:58:11.004Z,71.43
2018-01-12T03:00:39.369Z,66.67
2018-01-12T03:03:07.724Z,78.67
2018-01-12T03:05:36.040Z,91.73
2018-01-12T03:08:04.371Z,80.13
2018-01-12T03:10:32.722Z,93.70
2018-01-12T03:13:01.063Z,75.33
2018-01-12T03:15:29.401Z,74.93
2018-01-12T03:17:57.719Z,89.67
2018-01-12T03:20:26.081Z,95.13
2018-01-12T03:22:54.425Z,106.17
2018-01-12T03:25:22.852Z,101.40
2018-01-12T03:27:51.188Z,90.30
2018-01-12T03:30:19.519Z,114.20
2018-01-12T03:32:47.845Z,105.90
2018-01-12T03:35:16.173Z,104.17
2018-01-12T03:37:44.492Z,98.53
2018-01-12T03:40:12.824Z,105.17
2018-01-12T03:42:41.153Z,105.37
2018-01-12T03:45:09.576Z,106.77
2018-01-12T03:47:37.903Z,105.30
2018-01-12T03:50:06.256Z,104.07
2018-01-12T03:52:34.615Z,89.70
2018-01-12T03:55:02.935Z,85.77
2018-01-12T03:57:31.274Z,93.30
2018-01-12T03:59:59.596Z,77.33
2018-01-12T04:02:27.928Z,63.53
2018-01-12T04:04:56.320Z,69.67
2018-01-12T04:07:24.633Z,64.33
2018-01-12T04:09:52.973Z,74.10
2018-01-12T04:12:21.320Z,78.17
2018-01-12T04:14:49.653Z,77.73
2018-01-12T04:17:18.035Z,76.37
2018-01-12T04:19:46.364Z,81.83
2018-01-12T04:22:14.695Z,76.93
2018-01-12T04:24:43.004Z,66.93
2018-01-12T04:27:11.364Z,66.47
2018-01-12T04:29:39.718Z,77.33
2018-01-12T04:32:08.097Z,75.20
2018-01-12T04:34:36.421Z,91.73
2018-01-12T04:37:04.748Z,82.20
2018-01-12T04:39:33.087Z,73.63
2018-01-12T04:42:01.422Z,67.67
2018-01-12T04:44:29.728Z,82.87
2018-01-12T04:46:58.076Z,55.43
2018-01-12T04:49:26.440Z,68.60
2018-01-12T04:51:54.732Z,66.00
2018-01-12T04:54:23.066Z,61.17
2018-01-12T04:56:51.424Z,80.10
2018-01-12T04:59:19.753Z,85.27
2018-01-12T05:01:48.069Z,81.43
2018-01-12T05:04:16.408Z,91.93
2018-01-12T05:06:44.736Z,78.80
2018-01-12T05:09:13.094Z,67.40
2018-01-12T05:11:41.510Z,89.97
2018-01-12T05:14:09.889Z,74.03
2018-01-12T05:16:38.521Z,79.00
2018-01-12T05:19:06.816Z,77.20
2018-01-12T05:21:35.180Z,73.50
2018-01-12T05:24:03.505Z,68.13
2018-01-12T05:26:31.840Z,77.70
2018-01-12T05:29:00.181Z,72.23
2018-01-12T05:31:28.564Z,67.23
2018-01-12T05:33:56.948Z,97.53
2018-01-12T05:36:25.269Z,78.20
2018-01-12T05:38:53.613Z,78.00
2018-01-12T05:41:21.929Z,77.77
2018-01-12T05:43:50.299Z,72.73
2018-01-12T05:46:18.636Z,74.83
2018-01-12T05:48:47.018Z,82.53
2018-01-12T05:51:15.372Z,81.13
2018-01-12T05:53:43.713Z,71.10
2018-01-12T05:56:12.073Z,95.00
2018-01-12T05:58:40.441Z,77.60
2018-01-12T06:01:20.492Z,82.37
2018-01-12T06:04:00.541Z,76.63
2018-01-12T06:06:28.851Z,80.70
2018-01-12T06:08:57.519Z,91.03
2018-01-12T06:11:25.836Z,74.37
2018-01-12T06:13:54.197Z,83.37
2018-01-12T06:16:22.597Z,61.53
2018-01-12T06:18:50.895Z,67.20
2018-01-12T06:21:19.242Z,58.40
2018-01-12T06:23:47.584Z,69.43
2018-01-12T06:26:16.280Z,79.73
2018-01-12T06:28:44.625Z,62.17
2018-01-12T06:31:13.981Z,65.97
2018-01-12T06:33:44.638Z,75.87
2018-01-12T06:36:12.992Z,57.30
2018-01-12T06:38:41.336Z,58.27
2018-01-12T06:43:42.432Z,64.83
2018-01-12T06:46:10.984Z,60.67
2018-01-12T06:48:39.352Z,63.37
2018-01-12T06:51:07.712Z,54.93
2018-01-12T06:53:36.280Z,44.53
2018-01-12T06:56:04.790Z,44.30
2018-01-12T06:58:33.976Z,42.97
2018-01-12T07:01:03.185Z,48.00
2018-01-12T07:03:31.560Z,48.37
2018-01-12T07:05:59.969Z,62.20
2018-01-12T07:08:28.318Z,64.87
2018-01-12T07:10:56.718Z,56.63
2018-01-12T07:18:30.875Z,40.83
2018-01-12T07:21:11.164Z,46.87
2018-01-12T07:23:46.404Z,42.77
2018-01-12T07:26:14.753Z,43.10
2018-01-12T07:28:43.139Z,35.93
2018-01-12T07:31:11.735Z,49.93
2018-01-12T07:33:40.289Z,35.10
2018-01-12T07:36:08.858Z,49.73
2018-01-12T07:38:37.390Z,43.63
2018-01-12T07:41:10.381Z,33.03
2018-01-12T07:43:39.165Z,36.33
2018-01-12T07:46:07.884Z,35.33
2018-01-12T07:48:36.267Z,37.70
2018-01-12T07:51:04.604Z,38.67
2018-01-12T07:53:39.942Z,35.47
2018-01-12T07:56:08.762Z,33.90
2018-01-12T07:58:37.104Z,39.07
2018-01-12T08:01:11.600Z,40.03
2018-01-12T08:03:40.033Z,52.90
2018-01-12T08:06:08.412Z,42.30
2018-01-12T08:08:41.204Z,46.10
2018-01-12T08:11:10.317Z,39.13
2018-01-12T08:13:38.712Z,42.63
2018-01-12T08:16:07.140Z,37.93
2018-01-12T08:18:35.448Z,35.80
2018-01-12T08:21:03.785Z,40.50
2018-01-12T08:23:32.259Z,32.47
2018-01-12T08:26:00.717Z,40.20
2018-01-12T08:28:29.054Z,37.33
2018-01-12T08:30:57.371Z,35.63
2018-01-12T08:33:27.733Z,37.60
2018-01-12T08:35:56.124Z,33.70
2018-01-12T08:38:25.347Z,37.50
2018-01-12T08:40:53.728Z,49.90
2018-01-12T08:43:23.631Z,44.37
2018-01-12T08:48:38.956Z,38.30
2018-01-12T08:51:07.338Z,33.80
2018-01-12T08:53:35.782Z,37.47
2018-01-12T08:56:05.009Z,38.30
2018-01-12T08:58:33.570Z,36.80
2018-01-12T09:01:02.441Z,31.67
2018-01-12T09:03:31.481Z,34.63
2018-01-12T09:05:59.856Z,34.13
2018-01-12T09:13:50.340Z,46.30
2018-01-12T09:19:11.767Z,35.40
2018-01-12T09:24:24.173Z,31.53
2018-01-12T09:26:52.612Z,34.87
2018-01-12T09:29:21.056Z,37.10
2018-01-12T09:31:51.431Z,36.33
2018-01-12T09:37:04.194Z,35.67
2018-01-12T09:42:22.832Z,34.23
2018-01-12T09:44:51.193Z,33.20
2018-01-12T09:47:23.071Z,29.93
2018-01-12T09:49:51.568Z,28.30
2018-01-12T09:52:20.017Z,36.60
2018-01-12T09:54:48.421Z,36.20
2018-01-12T09:57:16.849Z,36.23
2018-01-12T09:59:45.242Z,28.97
2018-01-12T10:02:13.873Z,33.77
2018-01-12T10:04:42.430Z,28.93
2018-01-12T10:07:20.020Z,31.93
2018-01-12T10:09:48.404Z,32.73
2018-01-12T10:17:21.650Z,30.80
2018-01-12T10:23:00.089Z,50.10
2018-01-12T10:25:28.542Z,37.80
2018-01-12T10:27:56.923Z,39.37
2018-01-12T10:47:23.282Z,43.73
2018-01-12T11:32:20.352Z,33.40
2018-01-12T11:34:49.691Z,39.10
2018-01-12T11:39:55.313Z,54.57
2018-01-12T11:42:23.708Z,44.77
2018-01-12T11:44:52.088Z,40.23
2018-01-12T11:47:20.436Z,40.77
2018-01-12T11:49:53.246Z,35.03
2018-01-12T11:52:21.739Z,44.50
2018-01-12T11:59:56.653Z,41.93
2018-01-12T12:02:25.046Z,52.13
2018-01-12T12:04:53.471Z,47.00
2018-01-12T12:07:21.912Z,38.13
2018-01-12T12:09:50.402Z,44.77
2018-01-12T12:12:20.262Z,47.87
2018-01-12T12:14:48.653Z,53.17
2018-01-12T12:17:17.051Z,47.60
2018-01-12T12:19:45.537Z,43.93
2018-01-12T12:22:13.983Z,52.00
2018-01-12T12:24:42.509Z,36.90
2018-01-12T12:27:11.018Z,45.97
2018-01-12T12:29:39.507Z,43.40
2018-01-12T12:32:07.973Z,45.20
2018-01-12T12:34:37.053Z,46.33
2018-01-12T12:37:05.571Z,61.50
2018-01-12T12:42:07.380Z,41.17
2018-01-12T12:44:41.537Z,63.17
2018-01-12T12:47:09.928Z,58.13
2018-01-12T12:49:38.377Z,44.87
2018-01-12T12:52:06.760Z,37.40
2018-01-12T12:54:35.146Z,57.13
2018-01-12T12:57:04.117Z,42.00
2018-01-12T12:59:32.609Z,50.20
2018-01-12T13:02:01.264Z,50.03
2018-01-12T13:04:30.612Z,45.33
2018-01-12T13:07:03.421Z,53.70
2018-01-12T13:09:31.773Z,51.83
2018-01-12T13:12:00.214Z,62.20
2018-01-12T13:14:28.625Z,50.53
2018-01-12T13:16:58.961Z,45.50
2018-01-12T13:19:27.361Z,44.80
2018-01-12T13:21:56.169Z,42.53
2018-01-12T13:24:24.876Z,52.13
2018-01-12T13:27:18.167Z,48.43
2018-01-12T13:29:46.959Z,52.57
2018-01-12T13:32:15.312Z,59.37
2018-01-12T13:34:43.735Z,64.43
2018-01-12T13:37:13.962Z,50.10
2018-01-12T13:39:42.316Z,53.37
2018-01-12T13:42:10.704Z,52.40
2018-01-12T13:44:39.156Z,55.00
2018-01-12T13:47:07.517Z,50.07
2018-01-12T13:49:37.759Z,49.23
2018-01-12T13:52:06.105Z,51.30
2018-01-12T13:57:06.914Z,51.70
2018-01-12T13:59:35.337Z,49.90
2018-01-12T14:02:04.253Z,42.70
2018-01-12T14:04:32.835Z,60.73
2018-01-12T14:07:01.174Z,46.30
2018-01-12T14:09:29.539Z,58.57
2018-01-12T14:11:57.943Z,44.67
2018-01-12T14:14:26.353Z,49.77
2018-01-12T14:16:55.038Z,42.87
2018-01-12T14:19:23.396Z,56.00
2018-01-12T14:21:51.784Z,46.90
2018-01-12T14:24:20.128Z,48.50
2018-01-12T14:27:01.624Z,43.13
2018-01-12T14:29:29.985Z,48.60
2018-01-12T14:31:58.352Z,55.07
2018-01-12T14:34:27.234Z,55.30
2018-01-12T14:36:55.742Z,45.43
2018-01-12T14:39:24.111Z,46.03
2018-01-12T14:41:52.503Z,44.63
2018-01-12T14:44:20.869Z,56.20
2018-01-12T14:46:49.346Z,59.50
2018-01-12T14:49:17.819Z,55.60
2018-01-12T14:51:46.181Z,60.70
2018-01-12T14:54:15.085Z,45.63
2018-01-12T14:56:43.577Z,56.73
2018-01-12T14:59:11.936Z,61.70
2018-01-12T15:01:40.455Z,49.50
2018-01-12T15:04:09.713Z,52.00
2018-01-12T15:06:38.077Z,53.47
2018-01-12T15:09:06.541Z,53.87
2018-01-12T15:11:34.946Z,63.73
2018-01-12T15:14:03.656Z,61.00
2018-01-12T15:16:31.992Z,55.60
2018-01-12T15:19:01.073Z,64.43
2018-01-12T15:21:29.651Z,60.90
2018-01-12T15:23:58.822Z,66.53
2018-01-12T15:26:27.225Z,45.20
2018-01-12T15:28:55.627Z,62.03
2018-01-12T15:31:23.976Z,56.50
2018-01-12T15:33:52.338Z,62.03
2018-01-12T15:36:20.937Z,63.00
2018-01-12T15:41:21.800Z,63.20
2018-01-12T15:43:50.236Z,60.53
2018-01-12T15:46:18.587Z,66.00
2018-01-12T15:48:46.992Z,73.03
2018-01-12T15:51:15.410Z,74.20
2018-01-12T15:53:43.809Z,78.43
2018-01-12T15:56:12.207Z,68.90
2018-01-12T15:58:40.632Z,74.00
2018-01-12T16:01:09.196Z,70.23
2018-01-12T16:03:37.733Z,75.50
2018-01-12T16:06:07.203Z,78.97
2018-01-12T16:08:35.596Z,68.33
2018-01-12T16:11:03.988Z,70.60
2018-01-12T16:13:32.379Z,79.30
2018-01-12T16:16:00.737Z,79.33
2018-01-12T16:18:29.227Z,80.17
2018-01-12T16:20:57.847Z,72.20
2018-01-12T16:23:26.606Z,71.73
2018-01-12T16:25:55.175Z,81.43
2018-01-12T16:28:23.514Z,72.77
2018-01-12T16:30:51.890Z,75.37
2018-01-12T16:33:22.172Z,69.90
2018-01-12T16:35:50.502Z,73.77
2018-01-12T16:38:19.025Z,83.17
2018-01-12T16:40:47.368Z,85.57
2018-01-12T16:43:15.817Z,87.37
2018-01-12T16:45:44.162Z,65.80
2018-01-12T16:48:14.261Z,62.43
2018-01-12T16:50:42.795Z,75.73
2018-01-12T16:53:11.217Z,72.50
2018-01-12T16:55:39.804Z,68.40
2018-01-12T16:58:08.341Z,69.80
2018-01-12T17:00:36.924Z,72.27
2018-01-12T17:03:05.316Z,72.23
2018-01-12T17:05:33.909Z,62.37
2018-01-12T17:08:02.292Z,63.13
2018-01-12T17:10:30.678Z,70.43
2018-01-12T17:13:02.905Z,61.37
2018-01-12T17:15:31.247Z,54.63
2018-01-12T17:18:00.617Z,63.33
2018-01-12T17:20:29.725Z,55.83
2018-01-12T17:22:58.092Z,60.37
2018-01-12T17:25:28.298Z,68.33
2018-01-12T17:30:29.144Z,54.93
2018-01-12T17:32:57.493Z,68.33
2018-01-12T17:35:25.851Z,72.87
2018-01-12T17:37:54.307Z,63.67
2018-01-12T17:40:22.720Z,59.43
2018-01-12T17:42:51.170Z,55.17
2018-01-12T17:45:23.408Z,65.20
2018-01-12T17:47:51.787Z,55.10
2018-01-12T17:50:20.201Z,67.87
2018-01-12T17:52:48.512Z,60.07
2018-01-12T17:55:16.962Z,66.80
2018-01-12T17:57:45.368Z,64.70
2018-01-12T18:00:14.536Z,53.53
2018-01-12T18:02:43.665Z,57.03
2018-01-12T18:05:12.807Z,53.03
2018-01-12T18:07:41.228Z,56.17
2018-01-12T18:10:09.640Z,59.60
2018-01-12T18:12:38.113Z,57.90
2018-01-12T18:15:06.543Z,48.30
2018-01-12T18:17:34.892Z,57.67
2018-01-12T18:20:05.820Z,51.93
2018-01-12T18:22:34.229Z,74.90
2018-01-12T18:25:02.582Z,51.53
2018-01-12T18:27:31.073Z,51.10
2018-01-12T18:30:00.606Z,50.90
2018-01-12T18:32:29.057Z,49.00
2018-01-12T18:34:57.418Z,61.15
2018-01-12T18:37:25.908Z,51.50
2018-01-12T18:42:26.992Z,57.13
2018-01-12T18:44:55.676Z,52.43
2018-01-12T18:47:24.102Z,56.60
2018-01-12T18:49:52.633Z,51.67
2018-01-12T18:52:21.036Z,57.50
2018-01-12T18:54:49.845Z,56.73
2018-01-12T18:57:18.172Z,50.53
2018-01-12T18:59:46.501Z,51.57
2018-01-12T19:02:14.979Z,55.30
2018-01-12T19:04:43.398Z,62.73
2018-01-12T19:07:11.866Z,54.47
2018-01-12T19:09:40.322Z,57.63
2018-01-12T19:12:08.729Z,45.00
2018-01-12T19:14:37.162Z,48.07
2018-01-12T19:17:05.617Z,56.50
2018-01-12T19:19:36.745Z,55.20
2018-01-12T19:22:06.170Z,53.20
2018-01-12T19:24:34.635Z,64.20
2018-01-12T19:27:03.053Z,73.37
2018-01-12T19:29:31.590Z,67.97
2018-01-12T19:32:00.018Z,79.23
2018-01-12T19:34:28.487Z,80.77
2018-01-12T19:36:56.829Z,69.60
2018-01-12T19:39:25.214Z,80.23
2018-01-12T19:41:53.710Z,80.77
2018-01-12T19:44:22.021Z,86.77
2018-01-12T19:46:50.358Z,64.27
2018-01-12T19:49:18.700Z,72.60
2018-01-12T19:51:47.132Z,65.17
2018-01-12T19:54:15.547Z,86.37
2018-01-12T19:56:44.859Z,77.97
2018-01-12T19:59:13.399Z,77.93
2018-01-12T20:01:41.755Z,81.27
2018-01-12T20:04:10.933Z,86.93
2018-01-12T20:06:39.384Z,79.53
2018-01-12T20:09:07.720Z,87.30
2018-01-12T20:11:41.793Z,77.70
2018-01-12T20:14:10.183Z,72.80
2018-01-12T20:16:39.362Z,75.07
2018-01-12T20:19:07.744Z,75.47
2018-01-12T20:21:36.130Z,71.10
2018-01-12T20:24:04.945Z,77.60
2018-01-12T20:26:33.303Z,76.83
2018-01-12T20:31:53.022Z,78.57
2018-01-12T20:34:21.414Z,86.27
2018-01-12T20:36:50.632Z,74.67
2018-01-12T20:39:19.188Z,82.60
2018-01-12T20:41:47.540Z,68.47
2018-01-12T20:44:16.889Z,77.30
2018-01-12T20:46:45.836Z,85.57
2018-01-12T20:49:14.221Z,77.07
2018-01-12T20:51:42.911Z,72.37
2018-01-12T20:54:11.686Z,78.93
2018-01-12T20:56:40.182Z,74.47
2018-01-12T20:59:08.543Z,66.07
2018-01-12T21:01:37.130Z,61.70
2018-01-12T21:04:05.607Z,64.73
2018-01-12T21:06:34.085Z,71.43
2018-01-12T21:09:02.520Z,63.53
2018-01-12T21:11:30.839Z,75.60
2018-01-12T21:13:59.436Z,60.47
2018-01-12T21:16:27.800Z,52.83
2018-01-12T21:18:56.162Z,54.37
2018-01-12T21:21:26.119Z,58.73
2018-01-12T21:23:54.481Z,56.60
2018-01-12T21:26:23.113Z,65.97
2018-01-12T21:28:51.722Z,44.63
2018-01-12T21:31:20.121Z,59.00
2018-01-12T21:33:48.512Z,45.57
2018-01-12T21:36:17.299Z,49.90
2018-01-12T21:38:46.040Z,39.20
2018-01-12T21:41:14.543Z,55.53
2018-01-12T21:43:44.042Z,49.83
2018-01-12T21:46:12.527Z,56.87
2018-01-12T21:48:41.331Z,54.50
2018-01-12T21:51:09.927Z,41.47
2018-01-12T21:53:38.421Z,45.63
2018-01-12T21:56:06.816Z,25.43
2018-01-12T21:58:35.240Z,45.30
2018-01-12T22:01:03.580Z,42.83
2018-01-12T22:03:33.998Z,54.03
2018-01-12T22:06:02.406Z,52.30
2018-01-12T22:08:30.906Z,54.33
2018-01-12T22:10:59.410Z,53.87
2018-01-12T22:13:27.950Z,59.47
2018-01-12T22:15:56.287Z,60.43
2018-01-12T22:18:24.621Z,70.60
2018-01-12T22:20:52.950Z,72.70
2018-01-12T22:23:21.304Z,68.17
2018-01-12T22:25:49.637Z,62.63
2018-01-12T22:28:17.989Z,61.47
2018-01-12T22:30:46.376Z,74.30
2018-01-12T22:33:14.930Z,61.73
2018-01-12T22:35:43.388Z,66.00
2018-01-12T22:38:12.050Z,75.70
2018-01-12T22:40:40.413Z,65.03
2018-01-12T22:45:41.742Z,74.53
2018-01-12T22:48:11.050Z,70.23
2018-01-12T22:50:39.562Z,67.13
2018-01-12T22:53:07.995Z,64.13
2018-01-12T22:55:36.381Z,69.40
2018-01-12T22:58:04.737Z,72.40
2018-01-12T23:00:33.206Z,61.37
2018-01-12T23:03:01.555Z,60.23
2018-01-12T23:05:31.945Z,48.17
2018-01-12T23:08:00.306Z,64.17
2018-01-12T23:10:29.085Z,65.03
2018-01-12T23:12:57.447Z,40.50
2018-01-12T23:15:26.665Z,47.53
2018-01-12T23:17:55.029Z,57.40
2018-01-12T23:20:23.362Z,61.20
2018-01-12T23:22:51.718Z,59.17
2018-01-12T23:25:20.047Z,62.57
2018-01-12T23:27:48.389Z,26.20
2018-01-12T23:30:16.728Z,51.93
2018-01-12T23:32:45.477Z,42.60
2018-01-12T23:35:13.958Z,48.77
2018-01-12T23:37:42.287Z,35.87
2018-01-12T23:40:10.672Z,58.97
2018-01-12T23:42:39.035Z,60.47
2018-01-12T23:45:07.408Z,60.93
2018-01-12T23:47:37.635Z,54.13
2018-01-12T23:50:06.193Z,47.67
2018-01-12T23:52:34.528Z,54.10
2018-01-12T23:55:02.898Z,33.13
2018-01-12T23:57:31.216Z,36.70
2018-01-12T23:59:59.608Z,34.50
